sensor_id;sensor_type;location;lat;lon;timestamp;temperature;humidity
3037;DHT22;1528;52.550;13.408;2023-06-19T00:02:30;20.40;23.40
3037;DHT22;1528;52.550;13.408;2023-06-19T00:05:16;20.50;23.60
3037;DHT22;1528;52.550;13.408;2023-06-19T00:08:01;20.60;23.60
3037;DHT22;1528;52.550;13.408;2023-06-19T00:10:48;20.60;24.10
3037;DHT22;1528;52.550;13.408;2023-06-19T00:13:34;20.50;23.50
3037;DHT22;1528;52.550;13.408;2023-06-19T00:16:20;20.50;23.70
3037;DHT22;1528;52.550;13.408;2023-06-19T00:19:06;20.50;23.40
3037;DHT22;1528;52.550;13.408;2023-06-19T00:21:52;20.50;23.60
3037;DHT22;1528;52.550;13.408;2023-06-19T00:24:40;20.50;23.40
3037;DHT22;1528;52.550;13.408;2023-06-19T00:27:26;20.60;23.50
3037;DHT22;1528;52.550;13.408;2023-06-19T00:30:12;20.60;23.60
3037;DHT22;1528;52.550;13.408;2023-06-19T00:32:57;20.60;24.20
3037;DHT22;1528;52.550;13.408;2023-06-19T00:35:50;20.60;24.30
3037;DHT22;1528;52.550;13.408;2023-06-19T00:38:36;20.60;24.40
3037;DHT22;1528;52.550;13.408;2023-06-19T00:41:21;20.60;24.00
3037;DHT22;1528;52.550;13.408;2023-06-19T00:44:07;20.50;23.90
3037;DHT22;1528;52.550;13.408;2023-06-19T00:46:57;20.50;24.10
3037;DHT22;1528;52.550;13.408;2023-06-19T00:49:42;20.60;24.00
3037;DHT22;1528;52.550;13.408;2023-06-19T00:52:29;20.70;23.60
3037;DHT22;1528;52.550;13.408;2023-06-19T00:55:15;20.70;23.70
3037;DHT22;1528;52.550;13.408;2023-06-19T00:58:01;20.70;23.60
3037;DHT22;1528;52.550;13.408;2023-06-19T01:00:48;20.60;24.10
3037;DHT22;1528;52.550;13.408;2023-06-19T01:03:34;20.60;24.20
3037;DHT22;1528;52.550;13.408;2023-06-19T01:06:23;20.60;24.20
3037;DHT22;1528;52.550;13.408;2023-06-19T01:09:14;20.50;24.50
3037;DHT22;1528;52.550;13.408;2023-06-19T01:12:06;20.60;24.10
3037;DHT22;1528;52.550;13.408;2023-06-19T01:14:57;20.60;24.70
3037;DHT22;1528;52.550;13.408;2023-06-19T01:17:44;20.50;24.30
3037;DHT22;1528;52.550;13.408;2023-06-19T01:20:31;20.50;24.20
3037;DHT22;1528;52.550;13.408;2023-06-19T01:23:19;20.60;24.30
3037;DHT22;1528;52.550;13.408;2023-06-19T01:26:04;20.40;24.40
3037;DHT22;1528;52.550;13.408;2023-06-19T01:28:51;20.40;24.50
3037;DHT22;1528;52.550;13.408;2023-06-19T01:31:41;20.40;24.30
3037;DHT22;1528;52.550;13.408;2023-06-19T01:34:29;20.40;24.60
3037;DHT22;1528;52.550;13.408;2023-06-19T01:37:16;20.50;24.20
3037;DHT22;1528;52.550;13.408;2023-06-19T01:40:05;20.40;24.60
3037;DHT22;1528;52.550;13.408;2023-06-19T01:42:54;20.40;24.90
3037;DHT22;1528;52.550;13.408;2023-06-19T01:45:40;20.40;24.50
3037;DHT22;1528;52.550;13.408;2023-06-19T01:48:26;20.40;24.40
3037;DHT22;1528;52.550;13.408;2023-06-19T01:51:11;20.40;24.30
3037;DHT22;1528;52.550;13.408;2023-06-19T01:53:57;20.40;24.40
3037;DHT22;1528;52.550;13.408;2023-06-19T01:56:44;20.40;24.10
3037;DHT22;1528;52.550;13.408;2023-06-19T01:59:29;20.40;24.60
3037;DHT22;1528;52.550;13.408;2023-06-19T02:02:15;20.40;24.00
3037;DHT22;1528;52.550;13.408;2023-06-19T02:05:00;20.50;24.10
3037;DHT22;1528;52.550;13.408;2023-06-19T02:07:46;20.60;23.80
3037;DHT22;1528;52.550;13.408;2023-06-19T02:10:31;20.60;23.60
3037;DHT22;1528;52.550;13.408;2023-06-19T02:13:18;20.60;23.50
3037;DHT22;1528;52.550;13.408;2023-06-19T02:16:04;20.60;23.40
3037;DHT22;1528;52.550;13.408;2023-06-19T02:18:50;20.60;23.90
3037;DHT22;1528;52.550;13.408;2023-06-19T02:21:35;20.60;23.50
3037;DHT22;1528;52.550;13.408;2023-06-19T02:24:21;20.60;23.50
3037;DHT22;1528;52.550;13.408;2023-06-19T02:27:07;20.50;23.40
3037;DHT22;1528;52.550;13.408;2023-06-19T02:29:53;20.50;24.30
3037;DHT22;1528;52.550;13.408;2023-06-19T02:32:39;20.50;24.20
3037;DHT22;1528;52.550;13.408;2023-06-19T02:35:24;20.40;23.70
3037;DHT22;1528;52.550;13.408;2023-06-19T02:38:10;20.50;24.30
3037;DHT22;1528;52.550;13.408;2023-06-19T02:40:56;20.50;23.80
3037;DHT22;1528;52.550;13.408;2023-06-19T02:43:45;20.50;24.20
3037;DHT22;1528;52.550;13.408;2023-06-19T02:46:32;20.50;23.60
3037;DHT22;1528;52.550;13.408;2023-06-19T02:49:17;20.50;23.80
3037;DHT22;1528;52.550;13.408;2023-06-19T02:52:04;20.50;23.50
3037;DHT22;1528;52.550;13.408;2023-06-19T02:54:50;20.50;23.80
3037;DHT22;1528;52.550;13.408;2023-06-19T02:57:36;20.50;24.00
3037;DHT22;1528;52.550;13.408;2023-06-19T03:00:22;20.50;23.60
3037;DHT22;1528;52.550;13.408;2023-06-19T03:03:08;20.50;23.90
3037;DHT22;1528;52.550;13.408;2023-06-19T03:05:54;20.50;23.90
3037;DHT22;1528;52.550;13.408;2023-06-19T03:08:40;20.40;23.90
3037;DHT22;1528;52.550;13.408;2023-06-19T03:11:25;20.40;24.10
3037;DHT22;1528;52.550;13.408;2023-06-19T03:14:11;20.50;24.00
3037;DHT22;1528;52.550;13.408;2023-06-19T03:16:56;20.40;24.30
3037;DHT22;1528;52.550;13.408;2023-06-19T03:19:43;20.40;24.50
3037;DHT22;1528;52.550;13.408;2023-06-19T03:22:29;20.40;24.20
3037;DHT22;1528;52.550;13.408;2023-06-19T03:25:14;20.50;24.10
3037;DHT22;1528;52.550;13.408;2023-06-19T03:28:00;20.50;24.20
3037;DHT22;1528;52.550;13.408;2023-06-19T03:30:47;20.50;24.30
3037;DHT22;1528;52.550;13.408;2023-06-19T03:33:32;20.40;24.00
3037;DHT22;1528;52.550;13.408;2023-06-19T03:36:19;20.50;24.20
3037;DHT22;1528;52.550;13.408;2023-06-19T03:39:05;20.50;24.10
3037;DHT22;1528;52.550;13.408;2023-06-19T03:41:50;20.60;23.90
3037;DHT22;1528;52.550;13.408;2023-06-19T03:44:36;20.70;24.00
3037;DHT22;1528;52.550;13.408;2023-06-19T03:47:22;20.70;23.20
3037;DHT22;1528;52.550;13.408;2023-06-19T03:50:08;20.70;23.30
3037;DHT22;1528;52.550;13.408;2023-06-19T03:52:55;20.70;23.60
3037;DHT22;1528;52.550;13.408;2023-06-19T03:55:40;20.70;23.60
3037;DHT22;1528;52.550;13.408;2023-06-19T03:58:26;20.70;23.60
3037;DHT22;1528;52.550;13.408;2023-06-19T04:01:12;20.80;23.30
3037;DHT22;1528;52.550;13.408;2023-06-19T04:03:58;20.80;23.20
3037;DHT22;1528;52.550;13.408;2023-06-19T04:06:44;20.90;22.90
3037;DHT22;1528;52.550;13.408;2023-06-19T04:09:32;20.90;22.90
3037;DHT22;1528;52.550;13.408;2023-06-19T04:12:17;20.80;22.90
3037;DHT22;1528;52.550;13.408;2023-06-19T04:15:03;20.90;22.50
3037;DHT22;1528;52.550;13.408;2023-06-19T04:17:49;20.90;22.80
3037;DHT22;1528;52.550;13.408;2023-06-19T04:20:34;20.90;22.90
3037;DHT22;1528;52.550;13.408;2023-06-19T04:23:20;21.00;22.90
3037;DHT22;1528;52.550;13.408;2023-06-19T04:26:07;20.90;22.90
3037;DHT22;1528;52.550;13.408;2023-06-19T04:28:52;21.00;22.90
3037;DHT22;1528;52.550;13.408;2023-06-19T04:31:38;21.00;22.90
3037;DHT22;1528;52.550;13.408;2023-06-19T04:34:25;21.10;22.70
3037;DHT22;1528;52.550;13.408;2023-06-19T04:37:10;20.90;22.90
3037;DHT22;1528;52.550;13.408;2023-06-19T04:39:56;21.00;22.90
3037;DHT22;1528;52.550;13.408;2023-06-19T04:42:43;21.00;22.90
3037;DHT22;1528;52.550;13.408;2023-06-19T04:45:28;21.00;22.80
3037;DHT22;1528;52.550;13.408;2023-06-19T04:48:14;21.00;22.80
3037;DHT22;1528;52.550;13.408;2023-06-19T04:50:59;21.20;22.70
3037;DHT22;1528;52.550;13.408;2023-06-19T04:53:45;21.20;22.80
3037;DHT22;1528;52.550;13.408;2023-06-19T04:56:31;21.20;22.80
3037;DHT22;1528;52.550;13.408;2023-06-19T04:59:18;21.20;22.70
3037;DHT22;1528;52.550;13.408;2023-06-19T05:02:03;21.30;22.70
3037;DHT22;1528;52.550;13.408;2023-06-19T05:04:50;21.30;22.50
3037;DHT22;1528;52.550;13.408;2023-06-19T05:07:36;21.30;22.50
3037;DHT22;1528;52.550;13.408;2023-06-19T05:10:22;21.30;22.50
3037;DHT22;1528;52.550;13.408;2023-06-19T05:13:07;21.20;22.70
3037;DHT22;1528;52.550;13.408;2023-06-19T05:15:54;21.30;23.60
3037;DHT22;1528;52.550;13.408;2023-06-19T05:18:41;21.40;22.60
3037;DHT22;1528;52.550;13.408;2023-06-19T05:21:26;21.50;22.60
3037;DHT22;1528;52.550;13.408;2023-06-19T05:24:12;21.40;22.20
3037;DHT22;1528;52.550;13.408;2023-06-19T05:26:57;21.40;22.40
3037;DHT22;1528;52.550;13.408;2023-06-19T05:29:43;21.40;22.40
3037;DHT22;1528;52.550;13.408;2023-06-19T05:32:30;21.40;22.20
3037;DHT22;1528;52.550;13.408;2023-06-19T05:35:16;21.40;22.20
3037;DHT22;1528;52.550;13.408;2023-06-19T05:38:01;21.40;22.40
3037;DHT22;1528;52.550;13.408;2023-06-19T05:40:47;21.40;22.40
3037;DHT22;1528;52.550;13.408;2023-06-19T05:43:32;21.50;22.40
3037;DHT22;1528;52.550;13.408;2023-06-19T05:46:17;21.60;22.40
3037;DHT22;1528;52.550;13.408;2023-06-19T05:49:04;21.60;22.10
3037;DHT22;1528;52.550;13.408;2023-06-19T05:51:50;21.60;22.30
3037;DHT22;1528;52.550;13.408;2023-06-19T05:54:35;21.70;22.40
3037;DHT22;1528;52.550;13.408;2023-06-19T05:57:21;21.80;22.30
3037;DHT22;1528;52.550;13.408;2023-06-19T06:00:08;22.00;21.80
3037;DHT22;1528;52.550;13.408;2023-06-19T06:02:56;22.10;21.70
3037;DHT22;1528;52.550;13.408;2023-06-19T06:05:45;21.90;21.70
3037;DHT22;1528;52.550;13.408;2023-06-19T06:08:33;21.90;22.60
3037;DHT22;1528;52.550;13.408;2023-06-19T06:11:18;22.10;22.80
3037;DHT22;1528;52.550;13.408;2023-06-19T06:14:04;22.20;22.70
3037;DHT22;1528;52.550;13.408;2023-06-19T06:16:49;22.20;22.90
3037;DHT22;1528;52.550;13.408;2023-06-19T06:19:35;22.20;22.10
3037;DHT22;1528;52.550;13.408;2023-06-19T06:22:23;22.10;22.60
3037;DHT22;1528;52.550;13.408;2023-06-19T06:25:09;21.90;22.70
3037;DHT22;1528;52.550;13.408;2023-06-19T06:27:55;22.10;22.60
3037;DHT22;1528;52.550;13.408;2023-06-19T06:30:41;22.10;21.70
3037;DHT22;1528;52.550;13.408;2023-06-19T06:33:26;22.10;22.10
3037;DHT22;1528;52.550;13.408;2023-06-19T06:36:14;22.00;22.10
3037;DHT22;1528;52.550;13.408;2023-06-19T06:39:01;22.20;21.90
3037;DHT22;1528;52.550;13.408;2023-06-19T06:41:46;22.40;22.00
3037;DHT22;1528;52.550;13.408;2023-06-19T06:44:32;22.30;21.50
3037;DHT22;1528;52.550;13.408;2023-06-19T06:47:17;22.40;21.70
3037;DHT22;1528;52.550;13.408;2023-06-19T06:50:04;22.50;21.50
3037;DHT22;1528;52.550;13.408;2023-06-19T06:52:50;22.60;21.50
3037;DHT22;1528;52.550;13.408;2023-06-19T06:55:37;22.60;21.20
3037;DHT22;1528;52.550;13.408;2023-06-19T06:58:22;22.80;20.80
3037;DHT22;1528;52.550;13.408;2023-06-19T07:01:08;23.00;20.70
3037;DHT22;1528;52.550;13.408;2023-06-19T07:03:54;23.10;20.50
3037;DHT22;1528;52.550;13.408;2023-06-19T07:06:39;23.20;20.20
3037;DHT22;1528;52.550;13.408;2023-06-19T07:09:25;23.40;19.80
3037;DHT22;1528;52.550;13.408;2023-06-19T07:12:12;23.40;19.30
3037;DHT22;1528;52.550;13.408;2023-06-19T07:14:58;23.60;19.30
3037;DHT22;1528;52.550;13.408;2023-06-19T07:17:44;23.60;19.50
3037;DHT22;1528;52.550;13.408;2023-06-19T07:20:30;23.70;19.70
3037;DHT22;1528;52.550;13.408;2023-06-19T07:23:16;23.70;19.50
3037;DHT22;1528;52.550;13.408;2023-06-19T07:26:01;23.60;20.00
3037;DHT22;1528;52.550;13.408;2023-06-19T07:28:48;23.70;19.20
3037;DHT22;1528;52.550;13.408;2023-06-19T07:31:34;23.70;19.40
3037;DHT22;1528;52.550;13.408;2023-06-19T07:34:20;23.90;18.80
3037;DHT22;1528;52.550;13.408;2023-06-19T07:37:05;24.00;19.00
3037;DHT22;1528;52.550;13.408;2023-06-19T07:39:51;24.00;19.00
3037;DHT22;1528;52.550;13.408;2023-06-19T07:42:37;24.20;19.00
3037;DHT22;1528;52.550;13.408;2023-06-19T07:45:23;24.20;18.80
3037;DHT22;1528;52.550;13.408;2023-06-19T07:48:09;24.40;18.90
3037;DHT22;1528;52.550;13.408;2023-06-19T07:50:55;24.60;18.50
3037;DHT22;1528;52.550;13.408;2023-06-19T07:53:41;24.60;18.20
3037;DHT22;1528;52.550;13.408;2023-06-19T07:56:27;24.50;17.90
3037;DHT22;1528;52.550;13.408;2023-06-19T07:59:12;24.30;17.60
3037;DHT22;1528;52.550;13.408;2023-06-19T08:02:00;24.40;18.10
3037;DHT22;1528;52.550;13.408;2023-06-19T08:04:46;24.50;18.00
3037;DHT22;1528;52.550;13.408;2023-06-19T08:07:32;24.60;18.20
3037;DHT22;1528;52.550;13.408;2023-06-19T08:10:18;24.60;18.20
3037;DHT22;1528;52.550;13.408;2023-06-19T08:13:03;24.80;18.20
3037;DHT22;1528;52.550;13.408;2023-06-19T08:15:49;24.80;17.70
3037;DHT22;1528;52.550;13.408;2023-06-19T08:18:36;24.70;17.90
3037;DHT22;1528;52.550;13.408;2023-06-19T08:21:21;24.90;19.00
3037;DHT22;1528;52.550;13.408;2023-06-19T08:24:07;25.00;18.10
3037;DHT22;1528;52.550;13.408;2023-06-19T08:26:52;25.00;17.80
3037;DHT22;1528;52.550;13.408;2023-06-19T08:29:38;25.00;17.80
3037;DHT22;1528;52.550;13.408;2023-06-19T08:32:23;25.20;17.50
3037;DHT22;1528;52.550;13.408;2023-06-19T08:35:10;25.20;18.60
3037;DHT22;1528;52.550;13.408;2023-06-19T08:37:56;25.00;19.00
3037;DHT22;1528;52.550;13.408;2023-06-19T08:40:42;25.00;18.00
3037;DHT22;1528;52.550;13.408;2023-06-19T08:43:28;24.90;17.80
3037;DHT22;1528;52.550;13.408;2023-06-19T08:46:15;24.80;17.70
3037;DHT22;1528;52.550;13.408;2023-06-19T08:49:02;25.00;17.00
3037;DHT22;1528;52.550;13.408;2023-06-19T08:51:48;25.10;18.40
3037;DHT22;1528;52.550;13.408;2023-06-19T08:54:34;25.20;18.40
3037;DHT22;1528;52.550;13.408;2023-06-19T08:57:35;25.20;17.30
3037;DHT22;1528;52.550;13.408;2023-06-19T09:00:24;25.30;18.80
3037;DHT22;1528;52.550;13.408;2023-06-19T09:03:11;25.30;18.80
3037;DHT22;1528;52.550;13.408;2023-06-19T09:06:02;25.30;17.40
3037;DHT22;1528;52.550;13.408;2023-06-19T09:08:59;25.20;17.70
3037;DHT22;1528;52.550;13.408;2023-06-19T09:11:56;25.20;17.70
3037;DHT22;1528;52.550;13.408;2023-06-19T09:14:44;25.30;18.00
3037;DHT22;1528;52.550;13.408;2023-06-19T09:17:29;25.30;18.30
3037;DHT22;1528;52.550;13.408;2023-06-19T09:20:26;25.40;17.80
3037;DHT22;1528;52.550;13.408;2023-06-19T09:23:12;25.40;17.30
3037;DHT22;1528;52.550;13.408;2023-06-19T09:26:00;25.50;17.00
3037;DHT22;1528;52.550;13.408;2023-06-19T09:28:45;25.70;17.70
3037;DHT22;1528;52.550;13.408;2023-06-19T09:31:34;25.60;17.40
3037;DHT22;1528;52.550;13.408;2023-06-19T09:34:21;25.60;17.20
3037;DHT22;1528;52.550;13.408;2023-06-19T09:37:07;25.60;17.80
3037;DHT22;1528;52.550;13.408;2023-06-19T09:39:56;25.60;17.60
3037;DHT22;1528;52.550;13.408;2023-06-19T09:42:43;25.70;17.20
3037;DHT22;1528;52.550;13.408;2023-06-19T09:45:31;25.70;17.80
3037;DHT22;1528;52.550;13.408;2023-06-19T09:48:19;25.80;17.60
3037;DHT22;1528;52.550;13.408;2023-06-19T09:51:10;25.90;17.00
3037;DHT22;1528;52.550;13.408;2023-06-19T09:53:57;26.00;16.60
3037;DHT22;1528;52.550;13.408;2023-06-19T09:56:43;26.20;16.20
3037;DHT22;1528;52.550;13.408;2023-06-19T09:59:31;26.30;16.80
3037;DHT22;1528;52.550;13.408;2023-06-19T10:02:17;26.40;16.10
3037;DHT22;1528;52.550;13.408;2023-06-19T10:05:04;26.60;16.00
3037;DHT22;1528;52.550;13.408;2023-06-19T10:07:52;26.70;17.20
3037;DHT22;1528;52.550;13.408;2023-06-19T10:10:46;26.80;15.40
3037;DHT22;1528;52.550;13.408;2023-06-19T10:13:33;27.10;14.60
3037;DHT22;1528;52.550;13.408;2023-06-19T10:16:23;27.20;14.40
3037;DHT22;1528;52.550;13.408;2023-06-19T10:19:13;27.30;14.70
3037;DHT22;1528;52.550;13.408;2023-06-19T10:21:59;27.30;14.30
3037;DHT22;1528;52.550;13.408;2023-06-19T10:24:49;27.40;13.50
3037;DHT22;1528;52.550;13.408;2023-06-19T10:27:37;27.60;14.00
3037;DHT22;1528;52.550;13.408;2023-06-19T10:30:23;27.70;14.50
3037;DHT22;1528;52.550;13.408;2023-06-19T10:33:10;27.80;13.20
3037;DHT22;1528;52.550;13.408;2023-06-19T10:35:55;27.90;13.50
3037;DHT22;1528;52.550;13.408;2023-06-19T10:38:42;27.80;12.50
3037;DHT22;1528;52.550;13.408;2023-06-19T10:41:31;27.70;13.20
3037;DHT22;1528;52.550;13.408;2023-06-19T10:44:17;27.80;12.40
3037;DHT22;1528;52.550;13.408;2023-06-19T10:47:03;27.80;13.60
3037;DHT22;1528;52.550;13.408;2023-06-19T10:49:50;27.60;12.60
3037;DHT22;1528;52.550;13.408;2023-06-19T10:52:36;27.60;14.30
3037;DHT22;1528;52.550;13.408;2023-06-19T10:55:22;27.80;11.50
3037;DHT22;1528;52.550;13.408;2023-06-19T10:58:07;27.80;12.90
3037;DHT22;1528;52.550;13.408;2023-06-19T11:00:53;27.90;12.50
3037;DHT22;1528;52.550;13.408;2023-06-19T11:03:39;27.90;12.40
3037;DHT22;1528;52.550;13.408;2023-06-19T11:06:26;28.00;12.90
3037;DHT22;1528;52.550;13.408;2023-06-19T11:09:12;28.00;12.10
3037;DHT22;1528;52.550;13.408;2023-06-19T11:11:58;27.90;11.10
3037;DHT22;1528;52.550;13.408;2023-06-19T11:14:45;27.90;13.20
3037;DHT22;1528;52.550;13.408;2023-06-19T11:17:31;28.30;11.50
3037;DHT22;1528;52.550;13.408;2023-06-19T11:20:17;28.40;9.90
3037;DHT22;1528;52.550;13.408;2023-06-19T11:23:04;28.60;11.20
3037;DHT22;1528;52.550;13.408;2023-06-19T11:25:49;28.70;11.10
3037;DHT22;1528;52.550;13.408;2023-06-19T11:28:35;28.90;9.20
3037;DHT22;1528;52.550;13.408;2023-06-19T11:31:25;29.00;9.10
3037;DHT22;1528;52.550;13.408;2023-06-19T11:34:11;29.20;8.30
3037;DHT22;1528;52.550;13.408;2023-06-19T11:36:57;29.50;9.30
3037;DHT22;1528;52.550;13.408;2023-06-19T11:39:45;29.60;9.30
3037;DHT22;1528;52.550;13.408;2023-06-19T11:42:31;30.00;9.40
3037;DHT22;1528;52.550;13.408;2023-06-19T11:45:17;30.60;7.80
3037;DHT22;1528;52.550;13.408;2023-06-19T11:48:05;31.40;5.50
3037;DHT22;1528;52.550;13.408;2023-06-19T11:50:51;32.00;4.50
3037;DHT22;1528;52.550;13.408;2023-06-19T11:53:36;32.10;3.50
3037;DHT22;1528;52.550;13.408;2023-06-19T11:56:23;32.20;3.60
3037;DHT22;1528;52.550;13.408;2023-06-19T11:59:09;32.20;4.20
3037;DHT22;1528;52.550;13.408;2023-06-19T12:01:55;32.60;3.60
3037;DHT22;1528;52.550;13.408;2023-06-19T12:04:42;33.40;2.60
3037;DHT22;1528;52.550;13.408;2023-06-19T12:07:28;33.50;1.60
3037;DHT22;1528;52.550;13.408;2023-06-19T12:10:13;33.70;1.00
3037;DHT22;1528;52.550;13.408;2023-06-19T12:13:00;33.50;1.60
3037;DHT22;1528;52.550;13.408;2023-06-19T12:15:45;33.30;1.20
3037;DHT22;1528;52.550;13.408;2023-06-19T12:18:31;33.00;1.40
3037;DHT22;1528;52.550;13.408;2023-06-19T12:21:16;32.90;2.60
3037;DHT22;1528;52.550;13.408;2023-06-19T12:24:02;33.10;1.50
3037;DHT22;1528;52.550;13.408;2023-06-19T12:26:48;33.60;1.00
3037;DHT22;1528;52.550;13.408;2023-06-19T12:29:35;33.90;1.00
3037;DHT22;1528;52.550;13.408;2023-06-19T12:32:20;34.70;1.00
3037;DHT22;1528;52.550;13.408;2023-06-19T12:35:06;36.20;1.00
3037;DHT22;1528;52.550;13.408;2023-06-19T12:37:52;38.00;1.00
3037;DHT22;1528;52.550;13.408;2023-06-19T12:40:39;40.10;1.00
3037;DHT22;1528;52.550;13.408;2023-06-19T12:43:25;42.20;1.00
3037;DHT22;1528;52.550;13.408;2023-06-19T12:46:12;44.20;1.00
3037;DHT22;1528;52.550;13.408;2023-06-19T12:48:58;45.60;1.00
3037;DHT22;1528;52.550;13.408;2023-06-19T12:51:43;46.30;1.00
3037;DHT22;1528;52.550;13.408;2023-06-19T12:54:29;47.10;1.00
3037;DHT22;1528;52.550;13.408;2023-06-19T12:57:15;48.10;1.00
3037;DHT22;1528;52.550;13.408;2023-06-19T13:00:01;48.20;1.00
3037;DHT22;1528;52.550;13.408;2023-06-19T13:02:49;48.70;1.00
3037;DHT22;1528;52.550;13.408;2023-06-19T13:05:35;47.70;1.00
3037;DHT22;1528;52.550;13.408;2023-06-19T13:08:21;46.40;1.00
3037;DHT22;1528;52.550;13.408;2023-06-19T13:11:06;45.70;1.00
3037;DHT22;1528;52.550;13.408;2023-06-19T13:13:52;44.10;1.00
3037;DHT22;1528;52.550;13.408;2023-06-19T13:16:37;42.30;1.00
3037;DHT22;1528;52.550;13.408;2023-06-19T13:19:24;41.60;1.00
3037;DHT22;1528;52.550;13.408;2023-06-19T13:22:10;44.40;1.00
3037;DHT22;1528;52.550;13.408;2023-06-19T13:24:55;45.60;1.00
3037;DHT22;1528;52.550;13.408;2023-06-19T13:27:41;46.10;1.00
3037;DHT22;1528;52.550;13.408;2023-06-19T13:30:27;45.20;1.00
3037;DHT22;1528;52.550;13.408;2023-06-19T13:33:13;45.00;1.00
3037;DHT22;1528;52.550;13.408;2023-06-19T13:36:00;47.10;1.00
3037;DHT22;1528;52.550;13.408;2023-06-19T13:38:46;48.10;1.00
3037;DHT22;1528;52.550;13.408;2023-06-19T13:41:32;48.80;1.00
3037;DHT22;1528;52.550;13.408;2023-06-19T13:44:18;47.30;1.00
3037;DHT22;1528;52.550;13.408;2023-06-19T13:47:04;47.10;1.00
3037;DHT22;1528;52.550;13.408;2023-06-19T13:49:50;47.90;1.00
3037;DHT22;1528;52.550;13.408;2023-06-19T13:52:37;46.60;1.00
3037;DHT22;1528;52.550;13.408;2023-06-19T13:55:22;47.20;1.00
3037;DHT22;1528;52.550;13.408;2023-06-19T13:58:08;48.10;1.00
3037;DHT22;1528;52.550;13.408;2023-06-19T14:00:53;48.80;1.00
3037;DHT22;1528;52.550;13.408;2023-06-19T14:03:39;49.20;1.00
3037;DHT22;1528;52.550;13.408;2023-06-19T14:06:25;48.70;1.00
3037;DHT22;1528;52.550;13.408;2023-06-19T14:09:12;48.10;1.00
3037;DHT22;1528;52.550;13.408;2023-06-19T14:11:57;48.00;1.00
3037;DHT22;1528;52.550;13.408;2023-06-19T14:14:44;47.90;1.00
3037;DHT22;1528;52.550;13.408;2023-06-19T14:17:29;47.40;1.00
3037;DHT22;1528;52.550;13.408;2023-06-19T14:20:15;46.30;1.00
3037;DHT22;1528;52.550;13.408;2023-06-19T14:23:01;45.90;1.00
3037;DHT22;1528;52.550;13.408;2023-06-19T14:25:48;45.90;1.00
3037;DHT22;1528;52.550;13.408;2023-06-19T14:28:33;46.60;1.00
3037;DHT22;1528;52.550;13.408;2023-06-19T14:31:19;46.10;1.00
3037;DHT22;1528;52.550;13.408;2023-06-19T14:34:05;45.30;1.00
3037;DHT22;1528;52.550;13.408;2023-06-19T14:36:50;44.80;1.00
3037;DHT22;1528;52.550;13.408;2023-06-19T14:39:36;44.00;1.00
3037;DHT22;1528;52.550;13.408;2023-06-19T14:42:23;43.20;1.00
3037;DHT22;1528;52.550;13.408;2023-06-19T14:45:09;41.90;1.00
3037;DHT22;1528;52.550;13.408;2023-06-19T14:47:55;41.50;1.00
3037;DHT22;1528;52.550;13.408;2023-06-19T14:50:41;41.60;1.00
3037;DHT22;1528;52.550;13.408;2023-06-19T14:53:26;40.70;1.00
3037;DHT22;1528;52.550;13.408;2023-06-19T14:56:12;40.00;1.00
3037;DHT22;1528;52.550;13.408;2023-06-19T14:58:59;39.10;1.00
3037;DHT22;1528;52.550;13.408;2023-06-19T15:01:45;38.30;1.00
3037;DHT22;1528;52.550;13.408;2023-06-19T15:04:30;37.50;1.00
3037;DHT22;1528;52.550;13.408;2023-06-19T15:07:16;36.70;1.00
3037;DHT22;1528;52.550;13.408;2023-06-19T15:10:02;36.00;1.00
3037;DHT22;1528;52.550;13.408;2023-06-19T15:12:48;35.30;1.00
3037;DHT22;1528;52.550;13.408;2023-06-19T15:15:35;35.50;1.00
3037;DHT22;1528;52.550;13.408;2023-06-19T15:18:21;35.30;1.00
3037;DHT22;1528;52.550;13.408;2023-06-19T15:21:06;35.40;1.00
3037;DHT22;1528;52.550;13.408;2023-06-19T15:23:53;34.90;1.00
3037;DHT22;1528;52.550;13.408;2023-06-19T15:26:40;35.20;1.00
3037;DHT22;1528;52.550;13.408;2023-06-19T15:29:25;35.20;1.00
3037;DHT22;1528;52.550;13.408;2023-06-19T15:32:12;34.80;1.00
3037;DHT22;1528;52.550;13.408;2023-06-19T15:34:58;34.90;1.00
3037;DHT22;1528;52.550;13.408;2023-06-19T15:37:44;34.60;1.00
3037;DHT22;1528;52.550;13.408;2023-06-19T15:40:29;34.30;1.00
3037;DHT22;1528;52.550;13.408;2023-06-19T15:43:15;34.10;1.00
3037;DHT22;1528;52.550;13.408;2023-06-19T15:46:01;33.80;1.00
3037;DHT22;1528;52.550;13.408;2023-06-19T15:48:49;33.20;1.00
3037;DHT22;1528;52.550;13.408;2023-06-19T15:51:36;32.80;1.00
3037;DHT22;1528;52.550;13.408;2023-06-19T15:54:21;32.60;1.00
3037;DHT22;1528;52.550;13.408;2023-06-19T15:57:07;32.50;1.00
3037;DHT22;1528;52.550;13.408;2023-06-19T15:59:52;32.50;1.00
3037;DHT22;1528;52.550;13.408;2023-06-19T16:02:38;32.50;1.00
3037;DHT22;1528;52.550;13.408;2023-06-19T16:05:26;32.50;1.00
3037;DHT22;1528;52.550;13.408;2023-06-19T16:08:11;32.70;1.00
3037;DHT22;1528;52.550;13.408;2023-06-19T16:10:57;32.80;1.00
3037;DHT22;1528;52.550;13.408;2023-06-19T16:13:42;32.70;1.00
3037;DHT22;1528;52.550;13.408;2023-06-19T16:16:28;32.60;1.00
3037;DHT22;1528;52.550;13.408;2023-06-19T16:19:14;32.50;1.00
3037;DHT22;1528;52.550;13.408;2023-06-19T16:22:00;32.40;1.00
3037;DHT22;1528;52.550;13.408;2023-06-19T16:24:46;32.30;1.00
3037;DHT22;1528;52.550;13.408;2023-06-19T16:27:32;32.40;1.00
3037;DHT22;1528;52.550;13.408;2023-06-19T16:30:17;32.30;1.00
3037;DHT22;1528;52.550;13.408;2023-06-19T16:33:03;32.20;1.00
3037;DHT22;1528;52.550;13.408;2023-06-19T16:35:49;32.10;1.00
3037;DHT22;1528;52.550;13.408;2023-06-19T16:38:36;32.10;1.00
3037;DHT22;1528;52.550;13.408;2023-06-19T16:41:21;31.90;1.00
3037;DHT22;1528;52.550;13.408;2023-06-19T16:44:06;32.00;1.20
3037;DHT22;1528;52.550;13.408;2023-06-19T16:46:52;31.90;1.00
3037;DHT22;1528;52.550;13.408;2023-06-19T16:49:38;31.70;1.00
3037;DHT22;1528;52.550;13.408;2023-06-19T16:52:24;31.60;1.70
3037;DHT22;1528;52.550;13.408;2023-06-19T16:55:12;31.40;2.00
3037;DHT22;1528;52.550;13.408;2023-06-19T16:57:57;31.20;2.00
3037;DHT22;1528;52.550;13.408;2023-06-19T17:00:43;30.90;2.40
3037;DHT22;1528;52.550;13.408;2023-06-19T17:03:28;30.70;2.80
3037;DHT22;1528;52.550;13.408;2023-06-19T17:06:14;30.50;3.00
3037;DHT22;1528;52.550;13.408;2023-06-19T17:08:59;30.30;3.20
3037;DHT22;1528;52.550;13.408;2023-06-19T17:11:46;30.20;3.40
3037;DHT22;1528;52.550;13.408;2023-06-19T17:14:32;30.10;3.70
3037;DHT22;1528;52.550;13.408;2023-06-19T17:17:17;30.00;3.60
3037;DHT22;1528;52.550;13.408;2023-06-19T17:20:04;30.00;4.10
3037;DHT22;1528;52.550;13.408;2023-06-19T17:22:51;29.90;4.00
3037;DHT22;1528;52.550;13.408;2023-06-19T17:25:37;30.00;4.10
3037;DHT22;1528;52.550;13.408;2023-06-19T17:28:23;29.90;4.10
3037;DHT22;1528;52.550;13.408;2023-06-19T17:31:09;29.80;4.00
3037;DHT22;1528;52.550;13.408;2023-06-19T17:33:54;29.70;4.40
3037;DHT22;1528;52.550;13.408;2023-06-19T17:36:40;29.50;4.80
3037;DHT22;1528;52.550;13.408;2023-06-19T17:39:26;29.40;4.80
3037;DHT22;1528;52.550;13.408;2023-06-19T17:42:12;29.30;5.00
3037;DHT22;1528;52.550;13.408;2023-06-19T17:44:59;29.20;5.70
3037;DHT22;1528;52.550;13.408;2023-06-19T17:47:45;29.20;5.80
3037;DHT22;1528;52.550;13.408;2023-06-19T17:50:31;29.10;5.90
3037;DHT22;1528;52.550;13.408;2023-06-19T17:53:16;28.90;6.00
3037;DHT22;1528;52.550;13.408;2023-06-19T17:56:02;28.80;6.10